Time;durP1;ratioP1;P1;durP2;ratioP2;P2;SDS_P1;SDS_P2;PMS_P1;PMS_P2;Temp;Humidity;BMP_temperature;BMP_pressure;BME280_temperature;BME280_humidity;BME280_pressure;Samples;Min_cycle;Max_cycle;Signal;HPM_P1;HPM_P2
2023/03/29 00:02:29;;;;;;;1.80;1.67;;;16.30;68.00;;;;;;4142456;28;20060;-64
2023/03/29 00:05:12;;;;;;;1.88;1.70;;;16.20;67.10;;;;;;4140889;28;20462;-64
2023/03/29 00:07:53;;;;;;;2.28;1.48;;;16.10;67.20;;;;;;4143228;28;20064;-64
2023/03/29 00:10:35;;;;;;;2.17;1.95;;;16.10;67.50;;;;;;4144150;28;20053;-69
2023/03/29 00:13:16;;;;;;;2.40;1.75;;;16.00;67.80;;;;;;4144296;28;20143;-64
2023/03/29 00:15:57;;;;;;;2.65;1.35;;;16.00;68.00;;;;;;4142529;28;20061;-64
2023/03/29 00:18:38;;;;;;;1.77;1.50;;;16.00;68.10;;;;;;4126989;28;20044;-66
2023/03/29 00:21:19;;;;;;;4.30;2.00;;;16.00;68.10;;;;;;4126809;28;20612;-65
2023/03/29 00:24:13;;;;;;;4.63;1.90;;;16.00;68.20;;;;;;4126691;28;20062;-65
2023/03/29 00:26:55;;;;;;;2.35;2.13;;;16.00;68.40;;;;;;4141144;28;20131;-62
2023/03/29 00:29:36;;;;;;;1.85;1.75;;;16.00;67.90;;;;;;4136342;28;20188;-63
2023/03/29 00:32:17;;;;;;;3.10;1.80;;;16.10;67.80;;;;;;4110631;28;20053;-63
2023/03/29 00:34:59;;;;;;;2.53;1.93;;;16.10;67.80;;;;;;4126704;28;20184;-63
2023/03/29 00:37:40;;;;;;;2.60;2.05;;;16.10;67.70;;;;;;4126743;28;20080;-62
2023/03/29 00:40:21;;;;;;;2.47;1.75;;;16.10;67.60;;;;;;4126866;28;20112;-62
2023/03/29 00:43:03;;;;;;;2.33;2.08;;;16.10;68.60;;;;;;4126764;28;20053;-63
2023/03/29 00:45:44;;;;;;;1.75;1.60;;;16.20;67.80;;;;;;4132527;28;20542;-63
2023/03/29 00:48:28;;;;;;;1.75;1.65;;;16.20;67.60;;;;;;4142751;28;20157;-63
2023/03/29 00:51:13;;;;;;;2.60;1.75;;;16.30;67.50;;;;;;4133307;28;20061;-62
2023/03/29 00:53:57;;;;;;;2.80;2.03;;;16.30;67.40;;;;;;4137275;28;20049;-63
2023/03/29 00:56:41;;;;;;;1.88;1.70;;;16.30;67.30;;;;;;4126443;28;20050;-63
2023/03/29 00:59:28;;;;;;;1.80;1.55;;;16.40;67.10;;;;;;4141769;28;20057;-63
2023/03/29 01:02:10;;;;;;;2.25;1.80;;;16.40;67.00;;;;;;4142896;28;20095;-63
2023/03/29 01:04:53;;;;;;;;;;;16.30;67.10;;;;;;4127341;28;20061;-62
2023/03/29 01:07:38;;;;;;;2.00;1.88;;;16.30;67.30;;;;;;4125520;28;20020;-62
2023/03/29 01:10:26;;;;;;;3.13;1.60;;;16.20;67.50;;;;;;4129691;28;20812;-62
2023/03/29 01:13:10;;;;;;;3.03;2.05;;;16.10;67.60;;;;;;4127334;28;20057;-63
2023/03/29 01:15:54;;;;;;;1.95;1.67;;;16.00;67.90;;;;;;4130797;28;20505;-63
2023/03/29 01:18:35;;;;;;;2.08;1.88;;;16.00;68.40;;;;;;4123674;28;20052;-63
2023/03/29 01:21:22;;;;;;;3.73;1.87;;;16.10;68.60;;;;;;4148852;28;20511;-63
2023/03/29 01:24:27;;;;;;;1.92;1.73;;;16.20;68.20;;;;;;4141735;28;20381;-63
2023/03/29 01:27:15;;;;;;;3.70;1.75;;;16.30;67.70;;;;;;4142375;28;20056;-63
2023/03/29 01:30:03;;;;;;;2.50;2.20;;;16.30;67.30;;;;;;4142805;28;20504;-63
2023/03/29 01:32:47;;;;;;;2.17;2.00;;;16.40;67.10;;;;;;4132524;28;20553;-63
2023/03/29 01:35:34;;;;;;;3.03;2.00;;;16.40;67.10;;;;;;4114988;28;20061;-64
2023/03/29 01:38:21;;;;;;;4.82;2.30;;;16.50;66.90;;;;;;4110300;28;20406;-63
2023/03/29 01:41:02;;;;;;;3.10;1.75;;;16.50;66.80;;;;;;4126319;28;20386;-64
2023/03/29 01:43:48;;;;;;;2.72;2.10;;;16.40;66.80;;;;;;4129574;28;20061;-64
2023/03/29 01:46:34;;;;;;;5.15;2.28;;;16.50;66.70;;;;;;4128486;28;20505;-64
2023/03/29 01:49:22;;;;;;;2.42;2.10;;;16.50;66.50;;;;;;4160481;28;20588;-64
2023/03/29 01:52:09;;;;;;;3.95;2.10;;;16.50;66.50;;;;;;4161516;28;20048;-63
2023/03/29 01:54:53;;;;;;;3.47;2.00;;;16.40;66.50;;;;;;4161409;28;20059;-64
2023/03/29 01:57:37;;;;;;;2.53;2.40;;;16.50;66.70;;;;;;4128774;28;20044;-64
2023/03/29 02:00:21;;;;;;;2.60;2.40;;;16.40;67.10;;;;;;4114127;28;20201;-64
2023/03/29 02:03:08;;;;;;;4.45;2.42;;;16.40;66.90;;;;;;4130960;28;20065;-64
2023/03/29 02:05:50;;;;;;;3.13;2.38;;;16.40;66.80;;;;;;4128907;28;20066;-64
2023/03/29 02:08:31;;;;;;;3.22;2.47;;;16.50;66.80;;;;;;4112913;28;20402;-64
2023/03/29 02:11:12;;;;;;;2.97;2.35;;;16.50;66.90;;;;;;4113329;28;20070;-63
2023/03/29 02:13:53;;;;;;;2.72;2.35;;;16.40;66.70;;;;;;4115873;28;20399;-64
2023/03/29 02:16:36;;;;;;;2.65;2.45;;;16.40;66.90;;;;;;4128913;28;20125;-63
2023/03/29 02:19:20;;;;;;;5.60;3.00;;;16.40;67.10;;;;;;4128825;28;20107;-64
2023/03/29 02:22:07;;;;;;;2.53;2.33;;;16.40;66.70;;;;;;4149123;28;20463;-64
2023/03/29 02:24:49;;;;;;;2.60;2.40;;;16.50;67.00;;;;;;4160627;28;20547;-64
2023/03/29 02:27:32;;;;;;;4.13;2.70;;;16.50;66.60;;;;;;4141294;28;20405;-64
2023/03/29 02:30:15;;;;;;;6.03;3.13;;;16.40;66.60;;;;;;4132841;28;20057;-64
2023/03/29 02:33:01;;;;;;;4.57;2.75;;;16.40;66.80;;;;;;4133342;28;20052;-64
2023/03/29 02:35:49;;;;;;;2.58;2.38;;;16.40;67.70;;;;;;4111950;28;20058;-64
2023/03/29 02:38:31;;;;;;;2.78;2.58;;;16.40;66.80;;;;;;4138629;28;20181;-64
2023/03/29 02:41:13;;;;;;;3.05;2.30;;;16.40;67.10;;;;;;4112348;28;20441;-64
2023/03/29 02:43:55;;;;;;;;;;;16.40;67.20;;;;;;4128225;28;20049;-64
2023/03/29 02:46:37;;;;;;;5.65;2.85;;;16.40;67.50;;;;;;4127332;28;19932;-64
2023/03/29 02:49:18;;;;;;;3.42;2.60;;;16.40;67.40;;;;;;4132549;28;20618;-64
2023/03/29 02:52:08;;;;;;;4.28;2.67;;;16.40;67.20;;;;;;4128499;28;20472;-64
2023/03/29 02:54:53;;;;;;;4.07;3.00;;;16.30;67.20;;;;;;4126812;28;20134;-64
2023/03/29 02:57:37;;;;;;;2.63;2.25;;;16.40;67.20;;;;;;4144734;28;20127;-64
2023/03/29 03:00:22;;;;;;;3.47;2.47;;;16.40;67.10;;;;;;4149526;28;20369;-64
2023/03/29 03:03:04;;;;;;;3.05;2.50;;;16.40;67.00;;;;;;4143258;28;20061;-63
2023/03/29 03:05:45;;;;;;;5.00;3.40;;;16.40;67.10;;;;;;4135279;28;20128;-64
2023/03/29 03:08:28;;;;;;;6.30;3.10;;;16.40;67.30;;;;;;4159082;28;20048;-64
2023/03/29 03:11:09;;;;;;;3.15;2.85;;;16.40;67.40;;;;;;4159428;28;20184;-63
2023/03/29 03:13:50;;;;;;;3.10;2.70;;;16.40;67.20;;;;;;4159353;28;20064;-64
2023/03/29 03:16:31;;;;;;;4.07;3.25;;;16.50;67.10;;;;;;4134571;28;20057;-63
2023/03/29 03:19:12;;;;;;;3.58;2.80;;;16.50;66.90;;;;;;4126694;28;20053;-64
2023/03/29 03:21:52;;;;;;;5.25;3.13;;;16.50;66.80;;;;;;4138506;28;20056;-64
2023/03/29 03:24:36;;;;;;;4.03;2.90;;;16.60;66.60;;;;;;4142633;28;20568;-64
2023/03/29 03:27:17;;;;;;;3.25;2.95;;;16.60;66.50;;;;;;4142749;28;20507;-64
2023/03/29 03:29:58;;;;;;;3.67;2.70;;;16.50;66.40;;;;;;4121412;28;20061;-63
2023/03/29 03:33:03;;;;;;;4.47;3.20;;;16.60;66.60;;;;;;4110167;28;20085;-64
2023/03/29 03:36:04;;;;;;;3.10;2.80;;;16.50;66.70;;;;;;4127260;28;20046;-64
2023/03/29 03:38:47;;;;;;;3.70;3.40;;;16.40;66.90;;;;;;4141789;28;20528;-63
2023/03/29 03:41:31;;;;;;;5.85;3.50;;;16.40;67.20;;;;;;4131851;28;20049;-64
2023/03/29 03:44:12;;;;;;;3.55;3.28;;;16.30;67.30;;;;;;4142399;28;20049;-63
2023/03/29 03:46:53;;;;;;;4.80;3.63;;;16.30;67.30;;;;;;4143141;28;20420;-64
2023/03/29 03:49:34;;;;;;;5.10;4.00;;;16.20;67.60;;;;;;4142062;28;20048;-64
2023/03/29 03:52:15;;;;;;;5.40;3.13;;;16.20;67.60;;;;;;4124727;28;20328;-64
2023/03/29 03:54:56;;;;;;;4.13;3.65;;;16.20;67.60;;;;;;4127518;28;20045;-64
2023/03/29 03:58:11;;;;;;;3.88;3.47;;;16.20;67.60;;;;;;4118086;28;20467;-63
2023/03/29 04:00:52;;;;;;;4.05;3.65;;;16.20;67.80;;;;;;4141119;28;20057;-63
2023/03/29 04:03:48;;;;;;;5.35;4.20;;;16.10;68.00;;;;;;4140168;28;20088;-64
2023/03/29 04:06:31;;;;;;;6.60;4.63;;;16.20;68.20;;;;;;4143126;28;20623;-63
2023/03/29 04:09:41;;;;;;;7.40;4.60;;;16.20;67.90;;;;;;4129039;28;20084;-63
2023/03/29 04:12:48;;;;;;;6.35;4.50;;;16.30;67.70;;;;;;4138653;28;20851;-63
2023/03/29 04:15:31;;;;;;;6.97;4.82;;;16.40;67.40;;;;;;4128481;28;20050;-64
2023/03/29 04:18:18;;;;;;;8.25;5.22;;;16.40;67.10;;;;;;4126760;28;20045;-64
2023/03/29 04:21:06;;;;;;;6.78;4.82;;;16.40;67.00;;;;;;4128449;28;20061;-63
2023/03/29 04:23:48;;;;;;;7.15;5.80;;;16.40;67.00;;;;;;4111256;28;20074;-64
2023/03/29 04:26:29;;;;;;;5.95;5.40;;;16.40;67.10;;;;;;4110044;28;20077;-64
2023/03/29 04:29:19;;;;;;;6.63;5.60;;;16.30;67.30;;;;;;4130854;28;20050;-64
2023/03/29 04:32:06;;;;;;;5.80;5.20;;;16.20;67.50;;;;;;4135329;28;20092;-65
2023/03/29 04:35:00;;;;;;;6.07;5.20;;;16.10;67.70;;;;;;4141137;28;20577;-64
2023/03/29 04:37:41;;;;;;;6.38;5.65;;;16.10;68.10;;;;;;4141604;28;20068;-64
2023/03/29 04:40:24;;;;;;;6.90;5.15;;;16.20;68.20;;;;;;4130624;28;20053;-64
2023/03/29 04:43:15;;;;;;;7.35;5.30;;;16.40;67.80;;;;;;4144280;28;20079;-63
2023/03/29 04:46:07;;;;;;;6.72;5.43;;;16.40;67.30;;;;;;4142537;28;20064;-64
2023/03/29 04:49:15;;;;;;;7.00;5.47;;;16.50;66.80;;;;;;4141012;28;20064;-63
2023/03/29 04:52:00;;;;;;;8.30;5.60;;;16.60;66.70;;;;;;4138453;28;20115;-63
2023/03/29 04:54:43;;;;;;;6.82;5.65;;;16.60;66.60;;;;;;4153285;28;20589;-63
2023/03/29 04:57:52;;;;;;;7.45;5.65;;;16.50;66.60;;;;;;4142485;28;20053;-63
2023/03/29 05:00:37;;;;;;;6.78;5.80;;;16.40;66.90;;;;;;4143154;28;20048;-63
2023/03/29 05:03:42;;;;;;;9.73;6.35;;;16.40;67.10;;;;;;4132946;28;20081;-63
2023/03/29 05:06:31;;;;;;;10.00;5.72;;;16.40;67.30;;;;;;4141664;28;20384;-64
2023/03/29 05:09:12;;;;;;;6.75;5.97;;;16.40;66.90;;;;;;4147698;28;20152;-63
2023/03/29 05:12:05;;;;;;;9.13;6.43;;;16.50;66.80;;;;;;4137013;28;20069;-64
2023/03/29 05:14:58;;;;;;;8.38;6.28;;;16.40;67.00;;;;;;4113969;28;20061;-65
2023/03/29 05:17:41;;;;;;;8.48;6.30;;;16.40;67.30;;;;;;4127509;28;20534;-65
2023/03/29 05:20:24;;;;;;;8.43;6.53;;;16.40;67.40;;;;;;4132594;28;20049;-65
2023/03/29 05:23:07;;;;;;;8.13;5.40;;;16.40;67.40;;;;;;4144267;28;20404;-65
2023/03/29 05:26:09;;;;;;;6.88;5.43;;;16.40;67.10;;;;;;4140221;28;20902;-65
2023/03/29 05:28:52;;;;;;;6.53;5.90;;;16.50;67.10;;;;;;4144329;28;20060;-65
2023/03/29 05:31:32;;;;;;;6.70;6.10;;;16.50;67.00;;;;;;4116872;28;20050;-65
2023/03/29 05:34:13;;;;;;;7.10;6.10;;;16.40;67.30;;;;;;4138759;28;20054;-65
2023/03/29 05:37:00;;;;;;;6.50;5.88;;;16.40;67.70;;;;;;4134000;28;20188;-65
2023/03/29 05:39:48;;;;;;;7.40;6.10;;;16.40;67.70;;;;;;4127856;28;20056;-64
2023/03/29 05:42:33;;;;;;;8.68;6.32;;;16.40;67.40;;;;;;4142124;28;20493;-62
2023/03/29 05:45:21;;;;;;;8.25;5.68;;;16.40;67.80;;;;;;4159071;28;20503;-63
2023/03/29 05:48:04;;;;;;;10.35;6.50;;;16.40;67.70;;;;;;4160423;28;20513;-62
2023/03/29 05:50:47;;;;;;;8.10;5.97;;;16.50;67.40;;;;;;4144349;28;20068;-63
2023/03/29 05:53:29;;;;;;;6.90;5.75;;;16.50;67.20;;;;;;4114212;28;20105;-63
2023/03/29 05:56:14;;;;;;;6.72;6.03;;;16.50;67.20;;;;;;4135688;28;20053;-64
2023/03/29 05:58:57;;;;;;;7.13;6.43;;;16.50;66.80;;;;;;4129185;28;20409;-63
2023/03/29 06:01:38;;;;;;;9.50;5.97;;;16.60;66.80;;;;;;4128957;28;20049;-63
2023/03/29 06:04:24;;;;;;;8.48;5.85;;;16.60;67.40;;;;;;4151373;28;20052;-63
2023/03/29 06:07:30;;;;;;;7.18;5.75;;;16.60;66.50;;;;;;4140705;28;20099;-63
2023/03/29 06:10:41;;;;;;;7.00;5.57;;;16.50;67.60;;;;;;4094514;28;20052;-63
2023/03/29 06:13:41;;;;;;;6.85;5.88;;;16.60;66.50;;;;;;4126870;28;20057;-63
2023/03/29 06:16:22;;;;;;;7.53;5.80;;;16.60;66.30;;;;;;4116408;28;20048;-63
2023/03/29 06:19:02;;;;;;;6.85;5.95;;;16.60;66.30;;;;;;4127349;28;20197;-63
2023/03/29 06:21:44;;;;;;;6.68;5.30;;;16.60;66.20;;;;;;4131957;28;20408;-65
2023/03/29 06:24:28;;;;;;;8.38;5.70;;;16.60;66.40;;;;;;4132741;28;20408;-65
2023/03/29 06:27:18;;;;;;;7.60;5.50;;;16.50;66.60;;;;;;4143599;28;20061;-65
2023/03/29 06:30:00;;;;;;;6.85;5.63;;;16.50;66.50;;;;;;4142734;28;20820;-65
2023/03/29 06:32:41;;;;;;;7.47;6.15;;;16.50;66.50;;;;;;4130679;28;20108;-64
2023/03/29 06:35:34;;;;;;;9.55;5.63;;;16.40;66.60;;;;;;4131227;28;20057;-65
2023/03/29 06:38:20;;;;;;;7.32;5.90;;;16.40;66.80;;;;;;4127622;28;20200;-65
2023/03/29 06:41:20;;;;;;;7.72;5.90;;;16.40;66.70;;;;;;4128064;28;20065;-65
2023/03/29 06:44:28;;;;;;;9.07;5.85;;;16.40;66.80;;;;;;4128265;28;20100;-64
2023/03/29 06:47:18;;;;;;;6.88;5.50;;;16.40;66.60;;;;;;4114580;28;20607;-64
2023/03/29 06:49:59;;;;;;;6.97;5.97;;;16.40;66.60;;;;;;4138291;28;20108;-64
2023/03/29 06:52:59;;;;;;;11.57;6.57;;;16.40;66.60;;;;;;4144195;28;20061;-64
2023/03/29 06:55:40;;;;;;;7.18;5.50;;;16.40;66.40;;;;;;4135723;28;20061;-62
2023/03/29 06:58:39;;;;;;;9.45;5.78;;;16.40;66.60;;;;;;4128517;28;20109;-67
2023/03/29 07:01:37;;;;;;;7.80;5.40;;;16.40;66.80;;;;;;4099414;28;20103;-64
2023/03/29 07:04:31;;;;;;;6.15;5.32;;;16.50;66.60;;;;;;4112439;28;20058;-63
2023/03/29 07:07:52;;;;;;;8.27;5.15;;;16.60;66.30;;;;;;4129538;28;20120;-63
2023/03/29 07:10:42;;;;;;;5.95;5.22;;;16.60;65.80;;;;;;4136138;28;20053;-63
2023/03/29 07:13:42;;;;;;;;;;;16.70;65.30;;;;;;4143766;28;20049;-63
2023/03/29 07:16:27;;;;;;;6.70;6.00;;;16.80;65.20;;;;;;4112304;28;19934;-63
2023/03/29 07:19:21;;;;;;;5.88;5.28;;;16.80;65.10;;;;;;4127731;28;20061;-63
2023/03/29 07:22:19;;;;;;;9.15;5.60;;;16.80;64.90;;;;;;4127582;28;20073;-64
2023/03/29 07:25:09;;;;;;;5.75;5.20;;;16.90;64.60;;;;;;4137269;28;20049;-63
2023/03/29 07:27:52;;;;;;;8.65;5.78;;;16.90;64.60;;;;;;4113717;28;20465;-63
2023/03/29 07:30:32;;;;;;;;;;;16.90;64.50;;;;;;4138654;28;20049;-63
2023/03/29 07:33:39;;;;;;;9.70;6.20;;;16.90;64.60;;;;;;4135346;28;19933;-64
2023/03/29 07:36:21;;;;;;;5.80;5.10;;;16.80;64.80;;;;;;4125714;28;20177;-63
2023/03/29 07:39:04;;;;;;;9.48;5.50;;;16.80;64.90;;;;;;4130117;28;20060;-63
2023/03/29 07:41:47;;;;;;;6.45;5.40;;;16.90;64.90;;;;;;4131904;28;20074;-63
2023/03/29 07:44:29;;;;;;;6.35;5.25;;;16.90;64.90;;;;;;4138859;28;20181;-63
2023/03/29 07:47:09;;;;;;;;;;;16.90;64.90;;;;;;4140758;28;20124;-64
2023/03/29 07:49:51;;;;;;;6.72;5.47;;;16.80;65.00;;;;;;4142419;28;20264;-64
2023/03/29 07:52:32;;;;;;;8.05;5.30;;;16.80;65.10;;;;;;4158612;28;20056;-64
2023/03/29 07:55:14;;;;;;;8.25;4.95;;;16.70;65.30;;;;;;4142295;28;20164;-64
2023/03/29 07:58:18;;;;;;;5.57;5.07;;;16.70;65.50;;;;;;4127422;28;20052;-64
2023/03/29 08:01:00;;;;;;;6.68;4.90;;;16.60;65.50;;;;;;4136802;28;20113;-63
2023/03/29 08:04:00;;;;;;;8.63;5.65;;;16.60;65.60;;;;;;4125814;28;20136;-62
2023/03/29 08:06:59;;;;;;;5.75;5.13;;;16.50;66.70;;;;;;4126714;28;20084;-63
2023/03/29 08:10:02;;;;;;;6.22;4.70;;;16.50;66.10;;;;;;4123263;28;20054;-66
2023/03/29 08:13:09;;;;;;;5.88;4.88;;;16.40;66.40;;;;;;4125866;28;20810;-64
2023/03/29 08:16:11;;;;;;;9.55;5.70;;;16.30;66.40;;;;;;4136848;28;20096;-67
2023/03/29 08:18:59;;;;;;;6.10;4.72;;;16.20;66.80;;;;;;4134119;28;20092;-67
2023/03/29 08:21:54;;;;;;;6.97;5.30;;;16.10;67.10;;;;;;4135859;28;20056;-67
2023/03/29 08:24:37;;;;;;;7.32;5.20;;;16.20;67.30;;;;;;4151463;28;20483;-67
2023/03/29 08:27:20;;;;;;;7.03;4.85;;;16.10;67.50;;;;;;4127324;28;20048;-67
2023/03/29 08:30:04;;;;;;;6.45;5.10;;;16.10;67.40;;;;;;4141661;28;20049;-67
2023/03/29 08:32:47;;;;;;;6.43;5.18;;;16.10;67.40;;;;;;4139936;28;20065;-67
2023/03/29 08:35:31;;;;;;;5.55;4.93;;;16.20;67.50;;;;;;4134163;28;20112;-67
2023/03/29 08:38:27;;;;;;;5.30;4.80;;;16.10;67.40;;;;;;4153160;28;20060;-67
2023/03/29 08:41:20;;;;;;;5.95;4.80;;;16.10;68.40;;;;;;4142330;28;20088;-67
2023/03/29 08:44:10;;;;;;;4.70;4.20;;;16.10;67.60;;;;;;4141075;28;20052;-62
2023/03/29 08:47:15;;;;;;;6.35;4.90;;;16.00;67.80;;;;;;4141122;28;20135;-63
2023/03/29 08:49:57;;;;;;;7.97;5.45;;;16.00;67.70;;;;;;4141984;28;20112;-62
2023/03/29 08:52:52;;;;;;;8.63;5.15;;;16.00;68.30;;;;;;4141022;28;20207;-61
2023/03/29 08:55:59;;;;;;;5.07;4.50;;;16.00;68.40;;;;;;4141055;28;20052;-62
2023/03/29 08:59:17;;;;;;;5.65;5.05;;;16.00;68.30;;;;;;4123034;28;20119;-62
2023/03/29 09:02:02;;;;;;;12.57;6.05;;;16.10;68.20;;;;;;4141674;28;20053;-62
2023/03/29 09:04:47;;;;;;;7.28;4.90;;;16.10;68.00;;;;;;4126808;28;20096;-62
2023/03/29 09:07:42;;;;;;;6.05;4.85;;;16.20;67.70;;;;;;4125038;28;20169;-61
2023/03/29 09:10:31;;;;;;;5.25;4.75;;;16.20;68.30;;;;;;4126960;28;20811;-61
2023/03/29 09:13:25;;;;;;;8.05;4.72;;;16.20;68.70;;;;;;4136833;28;20057;-61
2023/03/29 09:16:13;;;;;;;7.88;5.60;;;16.20;69.80;;;;;;4125262;28;20053;-61
2023/03/29 09:19:06;;;;;;;8.43;5.43;;;16.30;70.00;;;;;;4132388;28;20065;-59
2023/03/29 09:21:58;;;;;;;8.70;5.13;;;16.40;69.80;;;;;;4141325;28;20088;-57
2023/03/29 09:24:47;;;;;;;11.45;5.43;;;16.50;69.40;;;;;;4146236;28;20073;-60
2023/03/29 09:27:35;;;;;;;11.05;5.63;;;16.50;69.00;;;;;;4142881;28;20057;-60
2023/03/29 09:30:40;;;;;;;7.57;4.82;;;16.50;68.60;;;;;;4133110;28;20077;-60
2023/03/29 09:33:27;;;;;;;10.13;6.13;;;16.50;68.60;;;;;;4126472;28;20109;-60
2023/03/29 09:36:25;;;;;;;7.10;5.30;;;16.50;68.60;;;;;;4140100;28;20196;-60
2023/03/29 09:39:13;;;;;;;7.63;6.00;;;16.60;68.40;;;;;;4141595;28;20558;-60
2023/03/29 09:42:02;;;;;;;11.73;7.28;;;16.60;68.20;;;;;;4141587;28;20060;-61
2023/03/29 09:44:48;;;;;;;9.25;5.93;;;16.60;68.00;;;;;;4135673;28;20496;-59
2023/03/29 09:47:38;;;;;;;9.93;6.15;;;16.60;68.10;;;;;;4135632;28;20400;-60
2023/03/29 09:50:29;;;;;;;10.80;6.85;;;16.60;68.10;;;;;;4152752;28;20061;-60
2023/03/29 09:53:15;;;;;;;10.90;6.40;;;16.60;68.10;;;;;;4157110;28;20409;-60
2023/03/29 09:56:07;;;;;;;10.57;6.50;;;16.50;68.10;;;;;;4133587;28;20049;-61
2023/03/29 09:58:56;;;;;;;12.82;6.53;;;16.50;68.20;;;;;;4135277;28;20512;-61
2023/03/29 10:01:40;;;;;;;12.68;7.55;;;16.40;68.40;;;;;;4124977;28;20124;-60
2023/03/29 10:04:21;;;;;;;10.05;7.10;;;16.40;68.40;;;;;;4127503;28;20185;-61
2023/03/29 10:07:17;;;;;;;10.25;6.85;;;16.30;68.50;;;;;;4142454;28;20053;-60
2023/03/29 10:10:00;;;;;;;9.57;7.45;;;16.30;68.80;;;;;;4154542;28;21071;-60
2023/03/29 10:12:49;;;;;;;13.38;7.43;;;16.30;69.00;;;;;;4153496;28;20048;-59
2023/03/29 10:15:30;;;;;;;10.60;6.20;;;16.20;69.20;;;;;;4128689;28;20057;-60
2023/03/29 10:18:15;;;;;;;14.18;7.22;;;16.20;69.30;;;;;;4130043;28;20069;-60
2023/03/29 10:20:59;;;;;;;13.40;7.68;;;16.10;69.20;;;;;;4124424;28;20423;-61
2023/03/29 10:23:41;;;;;;;11.15;7.25;;;16.10;69.60;;;;;;4145293;28;20072;-60
2023/03/29 10:26:24;;;;;;;;;;;16.00;70.40;;;;;;4145407;28;20056;-60
2023/03/29 10:29:07;;;;;;;11.23;7.65;;;16.00;69.70;;;;;;4136709;28;20055;-62
2023/03/29 10:31:49;;;;;;;11.27;7.75;;;16.00;70.00;;;;;;4128368;28;20104;-60
2023/03/29 10:34:30;;;;;;;12.45;7.00;;;15.90;70.10;;;;;;4143584;28;20052;-60
2023/03/29 10:37:13;;;;;;;10.48;7.35;;;15.90;70.10;;;;;;4146186;28;20057;-60
2023/03/29 10:39:54;;;;;;;9.30;6.95;;;15.90;70.40;;;;;;4137741;28;20064;-60
2023/03/29 10:42:36;;;;;;;11.85;7.15;;;15.90;70.60;;;;;;4128446;28;20096;-62
2023/03/29 10:45:26;;;;;;;10.55;6.75;;;15.80;70.60;;;;;;4131196;28;20092;-60
2023/03/29 10:48:12;;;;;;;11.77;7.30;;;15.80;70.60;;;;;;4115216;28;20057;-60
2023/03/29 10:50:53;;;;;;;8.27;7.35;;;15.80;70.70;;;;;;4144674;28;20072;-60
2023/03/29 10:53:35;;;;;;;12.63;7.75;;;15.80;70.90;;;;;;4113653;28;20050;-60
2023/03/29 10:56:29;;;;;;;11.13;7.22;;;15.70;70.90;;;;;;4127460;28;20052;-60
2023/03/29 10:59:31;;;;;;;14.15;6.90;;;15.80;71.10;;;;;;4127619;28;20057;-60
2023/03/29 11:02:38;;;;;;;14.82;7.35;;;15.70;71.10;;;;;;4127979;28;20076;-60
2023/03/29 11:05:25;;;;;;;11.18;7.00;;;15.70;71.40;;;;;;4133043;28;20223;-61
2023/03/29 11:08:23;;;;;;;13.32;7.97;;;15.80;71.50;;;;;;4138133;28;20532;-61
2023/03/29 11:11:17;;;;;;;9.48;8.07;;;15.90;72.20;;;;;;4147625;28;20409;-61
2023/03/29 11:14:06;;;;;;;13.90;8.00;;;15.90;71.30;;;;;;4130988;28;20060;-61
2023/03/29 11:16:57;;;;;;;11.90;8.20;;;16.00;71.50;;;;;;4154863;28;20203;-60
2023/03/29 11:19:58;;;;;;;8.95;7.55;;;16.10;71.60;;;;;;4131762;28;20057;-61
2023/03/29 11:22:48;;;;;;;10.38;6.38;;;16.10;72.60;;;;;;4141680;28;20856;-61
2023/03/29 11:25:38;;;;;;;12.27;8.00;;;16.20;71.90;;;;;;4125128;28;20185;-60
2023/03/29 11:28:28;;;;;;;10.52;7.43;;;16.30;72.60;;;;;;4133961;28;20092;-62
2023/03/29 11:31:19;;;;;;;13.75;7.90;;;16.40;72.40;;;;;;4141612;28;20116;-61
2023/03/29 11:34:14;;;;;;;7.72;6.90;;;16.50;71.40;;;;;;4140818;28;20501;-61
2023/03/29 11:37:01;;;;;;;11.40;8.27;;;16.50;71.10;;;;;;4141497;28;20394;-61
2023/03/29 11:39:49;;;;;;;12.40;7.10;;;16.50;71.10;;;;;;4125045;28;20485;-61
2023/03/29 11:42:34;;;;;;;12.48;8.23;;;16.50;70.90;;;;;;4124457;28;20069;-61
2023/03/29 11:45:21;;;;;;;10.15;8.27;;;16.50;71.00;;;;;;4133741;28;20061;-62
2023/03/29 11:48:04;;;;;;;11.38;7.40;;;16.50;71.10;;;;;;4126181;28;20061;-61
2023/03/29 11:50:51;;;;;;;10.57;8.02;;;16.40;71.00;;;;;;4151858;28;20063;-61
2023/03/29 11:53:40;;;;;;;11.80;7.93;;;16.40;71.20;;;;;;4152132;28;20891;-61
2023/03/29 11:56:28;;;;;;;10.60;7.35;;;16.40;71.30;;;;;;4152557;28;20464;-61
2023/03/29 11:59:14;;;;;;;11.73;7.82;;;16.40;71.40;;;;;;4147633;28;20061;-61
2023/03/29 12:02:10;;;;;;;11.30;7.97;;;16.30;71.70;;;;;;4140630;28;20059;-61
2023/03/29 12:04:57;;;;;;;11.63;8.23;;;16.30;71.60;;;;;;4141757;28;20052;-61
2023/03/29 12:07:45;;;;;;;13.30;8.25;;;16.30;71.90;;;;;;4140643;28;20056;-61
2023/03/29 12:10:34;;;;;;;10.93;7.75;;;16.30;72.00;;;;;;4142160;28;20053;-61
2023/03/29 12:13:18;;;;;;;16.35;8.57;;;16.20;72.00;;;;;;4153682;28;20060;-61
2023/03/29 12:16:07;;;;;;;12.25;8.25;;;16.20;72.00;;;;;;4150648;28;20052;-60
2023/03/29 12:18:52;;;;;;;9.63;8.00;;;16.20;72.00;;;;;;4137103;28;20064;-61
2023/03/29 12:21:37;;;;;;;10.13;7.95;;;16.20;72.20;;;;;;4143918;28;20196;-62
2023/03/29 12:24:19;;;;;;;;;;;16.20;72.30;;;;;;4144439;28;20045;-61
2023/03/29 12:27:25;;;;;;;11.05;8.15;;;16.20;72.40;;;;;;4138587;28;20071;-62
2023/03/29 12:30:32;;;;;;;7.70;6.72;;;16.10;72.40;;;;;;4146959;28;20048;-61
2023/03/29 12:33:31;;;;;;;10.07;7.72;;;16.10;72.50;;;;;;4155330;28;20056;-62
2023/03/29 12:36:50;;;;;;;11.93;7.28;;;16.10;72.50;;;;;;4110181;28;20497;-61
2023/03/29 12:40:01;;;;;;;8.55;6.97;;;16.10;72.50;;;;;;4111140;28;20136;-61
2023/03/29 12:43:04;;;;;;;9.25;7.75;;;16.10;72.50;;;;;;4129721;28;20099;-62
2023/03/29 12:46:26;;;;;;;8.90;6.68;;;16.10;72.70;;;;;;4088774;29;20054;-60
2023/03/29 12:49:11;;;;;;;9.02;7.22;;;16.10;73.50;;;;;;4078842;29;20151;-61
2023/03/29 12:51:56;;;;;;;8.75;6.47;;;16.10;72.70;;;;;;4122332;28;20374;-60
2023/03/29 12:54:37;;;;;;;7.82;6.80;;;16.10;72.80;;;;;;4141338;28;20069;-61
2023/03/29 12:57:26;;;;;;;7.05;6.32;;;16.10;73.00;;;;;;4123892;28;20053;-61
2023/03/29 13:00:22;;;;;;;11.02;6.03;;;16.10;73.70;;;;;;4125487;28;20062;-61
2023/03/29 13:03:05;;;;;;;8.75;6.63;;;16.10;72.90;;;;;;4143581;28;20123;-61
2023/03/29 13:05:47;;;;;;;6.93;6.28;;;16.10;73.00;;;;;;4141001;28;20065;-61
2023/03/29 13:08:34;;;;;;;7.05;6.45;;;16.10;73.10;;;;;;4140695;28;20053;-61
2023/03/29 13:11:28;;;;;;;7.13;6.50;;;16.10;73.00;;;;;;4141082;28;20393;-61
2023/03/29 13:14:16;;;;;;;10.52;5.57;;;16.10;72.90;;;;;;4149425;28;20843;-61
2023/03/29 13:17:04;;;;;;;7.35;6.65;;;16.10;73.00;;;;;;4145489;28;20064;-61
2023/03/29 13:20:30;;;;;;;9.40;6.82;;;16.10;73.00;;;;;;4141236;28;20056;-61
2023/03/29 13:23:27;;;;;;;7.05;6.35;;;16.10;73.00;;;;;;4148849;28;20583;-61
2023/03/29 13:26:20;;;;;;;8.80;6.78;;;16.10;73.10;;;;;;4141614;28;20053;-61
2023/03/29 13:29:26;;;;;;;7.10;6.45;;;16.10;73.00;;;;;;4148814;28;20064;-61
2023/03/29 13:32:25;;;;;;;7.22;5.60;;;16.10;73.10;;;;;;4146005;28;20412;-61
2023/03/29 13:35:17;;;;;;;9.93;6.35;;;16.10;73.20;;;;;;4141633;28;20056;-62
2023/03/29 13:38:05;;;;;;;8.02;5.95;;;16.10;73.30;;;;;;4140985;28;20163;-62
2023/03/29 13:40:58;;;;;;;6.53;5.63;;;16.10;73.40;;;;;;4144259;28;20147;-62
2023/03/29 13:43:52;;;;;;;7.68;6.03;;;16.00;73.40;;;;;;4148161;28;20059;-62
2023/03/29 13:46:39;;;;;;;7.10;5.75;;;16.00;73.40;;;;;;4149430;28;20388;-62
2023/03/29 13:49:25;;;;;;;8.27;6.50;;;16.00;73.60;;;;;;4158755;28;20056;-62
2023/03/29 13:52:15;;;;;;;11.07;6.80;;;16.00;73.70;;;;;;4156665;28;20052;-62
2023/03/29 13:55:01;;;;;;;7.10;6.18;;;16.00;73.70;;;;;;4149720;28;20060;-62
2023/03/29 13:57:49;;;;;;;8.65;5.85;;;16.00;73.70;;;;;;4141975;28;20053;-61
2023/03/29 14:00:38;;;;;;;8.80;6.05;;;16.00;74.60;;;;;;4151368;28;20052;-62
2023/03/29 14:03:28;;;;;;;5.75;4.90;;;16.00;73.60;;;;;;4148578;28;20189;-61
2023/03/29 14:06:13;;;;;;;9.48;5.18;;;16.00;73.70;;;;;;4146650;28;20068;-62
2023/03/29 14:08:55;;;;;;;7.45;4.95;;;16.00;74.70;;;;;;4146722;28;20199;-62
2023/03/29 14:11:36;;;;;;;6.38;5.78;;;16.00;73.70;;;;;;4147950;28;20060;-62
2023/03/29 14:14:21;;;;;;;10.40;5.07;;;16.00;73.90;;;;;;4145003;28;20056;-61
2023/03/29 14:17:02;;;;;;;6.95;5.00;;;16.00;73.80;;;;;;4156217;28;20087;-62
2023/03/29 14:19:44;;;;;;;6.28;4.68;;;16.00;73.80;;;;;;4154443;28;20057;-62
2023/03/29 14:22:32;;;;;;;7.03;4.78;;;16.00;74.20;;;;;;4147945;28;20595;-62
2023/03/29 14:25:16;;;;;;;6.43;4.32;;;16.10;75.10;;;;;;4147382;28;20095;-63
2023/03/29 14:27:56;;;;;;;7.93;5.72;;;16.10;75.20;;;;;;4148557;28;20153;-63
2023/03/29 14:30:38;;;;;;;5.63;5.03;;;16.20;76.50;;;;;;4148947;28;20092;-62
2023/03/29 14:33:27;;;;;;;7.28;5.85;;;16.20;75.80;;;;;;4151396;28;20064;-63
2023/03/29 14:36:15;;;;;;;6.82;5.45;;;16.20;75.70;;;;;;4148286;28;20045;-62